sensor_id;sensor_type;location;lat;lon;timestamp;pressure;altitude;pressure_sealevel;temperature;humidity
57086;BME280;42964;42.910;23.792;2023-04-21T00:04:34;97244.41;;;8.33;98.77
57086;BME280;42964;42.910;23.792;2023-04-21T00:09:33;97235.78;;;8.22;98.66
57086;BME280;42964;42.910;23.792;2023-04-21T00:14:32;97247.00;;;8.08;98.87
57086;BME280;42964;42.910;23.792;2023-04-21T00:19:31;97249.56;;;7.92;99.31
57086;BME280;42964;42.910;23.792;2023-04-21T00:24:30;97249.53;;;7.82;99.13
57086;BME280;42964;42.910;23.792;2023-04-21T00:29:28;97242.66;;;7.77;99.20
57086;BME280;42964;42.910;23.792;2023-04-21T00:34:28;97246.94;;;7.72;99.06
57086;BME280;42964;42.910;23.792;2023-04-21T00:39:26;97240.91;;;7.65;98.85
57086;BME280;42964;42.910;23.792;2023-04-21T00:44:25;97226.25;;;7.56;99.56
57086;BME280;42964;42.910;23.792;2023-04-21T00:49:24;97235.69;;;7.50;99.29
57086;BME280;42964;42.910;23.792;2023-04-21T00:54:23;97231.28;;;7.29;99.43
57086;BME280;42964;42.910;23.792;2023-04-21T00:59:25;97224.38;;;7.18;99.48
57086;BME280;42964;42.910;23.792;2023-04-21T01:04:24;97229.53;;;7.15;99.22
57086;BME280;42964;42.910;23.792;2023-04-21T01:09:23;97194.19;;;6.96;99.67
57086;BME280;42964;42.910;23.792;2023-04-21T01:14:22;97195.84;;;6.78;99.58
57086;BME280;42964;42.910;23.792;2023-04-21T01:19:21;97233.72;;;6.92;98.80
57086;BME280;42964;42.910;23.792;2023-04-21T01:24:20;97227.59;;;6.74;100.00
57086;BME280;42964;42.910;23.792;2023-04-21T01:29:19;97239.66;;;6.78;100.00
57086;BME280;42964;42.910;23.792;2023-04-21T01:34:18;97231.03;;;6.69;100.00
57086;BME280;42964;42.910;23.792;2023-04-21T01:39:17;97217.28;;;6.74;100.00
57086;BME280;42964;42.910;23.792;2023-04-21T01:44:16;97217.31;;;6.73;99.97
57086;BME280;42964;42.910;23.792;2023-04-21T01:49:15;97209.53;;;6.70;100.00
57086;BME280;42964;42.910;23.792;2023-04-21T01:54:14;97201.75;;;6.62;100.00
57086;BME280;42964;42.910;23.792;2023-04-21T01:59:13;97191.41;;;6.56;100.00
57086;BME280;42964;42.910;23.792;2023-04-21T02:04:12;97202.56;;;6.53;100.00
57086;BME280;42964;42.910;23.792;2023-04-21T02:09:11;97198.69;;;5.93;100.00
57086;BME280;42964;42.910;23.792;2023-04-21T02:14:10;97206.50;;;6.04;99.90
57086;BME280;42964;42.910;23.792;2023-04-21T02:19:09;97133.19;;;5.57;100.00
57086;BME280;42964;42.910;23.792;2023-04-21T02:24:08;97200.44;;;5.97;100.00
57086;BME280;42964;42.910;23.792;2023-04-21T02:29:07;97209.09;;;6.04;100.00
57086;BME280;42964;42.910;23.792;2023-04-21T02:34:06;97167.66;;;5.76;100.00
57086;BME280;42964;42.910;23.792;2023-04-21T02:39:05;97222.81;;;6.01;100.00
57086;BME280;42964;42.910;23.792;2023-04-21T02:44:04;97227.84;;;5.87;100.00
57086;BME280;42964;42.910;23.792;2023-04-21T02:49:03;97233.84;;;5.86;100.00
57086;BME280;42964;42.910;23.792;2023-04-21T02:54:02;97228.72;;;5.92;100.00
57086;BME280;42964;42.910;23.792;2023-04-21T02:59:01;97234.53;;;5.68;100.00
57086;BME280;42964;42.910;23.792;2023-04-21T03:04:00;97235.34;;;5.64;100.00
57086;BME280;42964;42.910;23.792;2023-04-21T03:08:59;97156.00;;;5.22;100.00
57086;BME280;42964;42.910;23.792;2023-04-21T03:13:59;97239.78;;;5.79;100.00
57086;BME280;42964;42.910;23.792;2023-04-21T03:18:58;97244.91;;;5.78;100.00
57086;BME280;42964;42.910;23.792;2023-04-21T03:23:56;97212.88;;;5.49;100.00
57086;BME280;42964;42.910;23.792;2023-04-21T03:28:55;97256.81;;;5.66;100.00
57086;BME280;42964;42.910;23.792;2023-04-21T03:33:54;97249.25;;;5.83;100.00
57086;BME280;42964;42.910;23.792;2023-04-21T03:38:53;97244.22;;;5.94;100.00
57086;BME280;42964;42.910;23.792;2023-04-21T03:43:52;97245.97;;;6.00;100.00
57086;BME280;42964;42.910;23.792;2023-04-21T03:48:51;97251.16;;;6.03;100.00
57086;BME280;42964;42.910;23.792;2023-04-21T03:53:50;97258.84;;;5.98;100.00
57086;BME280;42964;42.910;23.792;2023-04-21T03:58:49;97200.72;;;5.36;100.00
57086;BME280;42964;42.910;23.792;2023-04-21T04:03:48;97268.03;;;5.73;100.00
57086;BME280;42964;42.910;23.792;2023-04-21T04:08:47;97280.91;;;5.73;100.00
57086;BME280;42964;42.910;23.792;2023-04-21T04:13:46;97299.75;;;5.69;100.00
57086;BME280;42964;42.910;23.792;2023-04-21T04:18:45;97296.50;;;5.87;100.00
57086;BME280;42964;42.910;23.792;2023-04-21T04:23:44;97302.63;;;6.00;100.00
57086;BME280;42964;42.910;23.792;2023-04-21T04:28:43;97303.72;;;6.22;100.00
57086;BME280;42964;42.910;23.792;2023-04-21T04:33:43;97300.44;;;6.41;100.00
57086;BME280;42964;42.910;23.792;2023-04-21T04:38:42;97316.00;;;6.52;100.00
57086;BME280;42964;42.910;23.792;2023-04-21T04:43:41;97270.88;;;5.99;100.00
57086;BME280;42964;42.910;23.792;2023-04-21T04:48:41;97324.13;;;6.02;100.00
57086;BME280;42964;42.910;23.792;2023-04-21T04:53:40;97323.31;;;6.06;100.00
57086;BME280;42964;42.910;23.792;2023-04-21T04:58:39;97321.81;;;6.32;100.00
57086;BME280;42964;42.910;23.792;2023-04-21T05:03:38;97325.44;;;6.56;100.00
57086;BME280;42964;42.910;23.792;2023-04-21T05:08:37;97322.25;;;6.85;100.00
57086;BME280;42964;42.910;23.792;2023-04-21T05:13:37;97334.38;;;7.01;100.00
57086;BME280;42964;42.910;23.792;2023-04-21T05:18:36;97331.81;;;7.07;97.54
57086;BME280;42964;42.910;23.792;2023-04-21T05:23:36;97328.50;;;7.25;98.25
57086;BME280;42964;42.910;23.792;2023-04-21T05:28:36;97330.38;;;7.48;98.34
57086;BME280;42964;42.910;23.792;2023-04-21T05:33:35;97324.41;;;7.65;98.15
57086;BME280;42964;42.910;23.792;2023-04-21T05:38:34;97321.03;;;7.83;97.31
57086;BME280;42964;42.910;23.792;2023-04-21T05:43:34;97305.56;;;8.00;96.80
57086;BME280;42964;42.910;23.792;2023-04-21T05:48:33;97293.47;;;7.96;96.06
57086;BME280;42964;42.910;23.792;2023-04-21T05:53:32;97308.16;;;8.17;95.32
57086;BME280;42964;42.910;23.792;2023-04-21T05:58:32;97316.78;;;8.32;93.65
57086;BME280;42964;42.910;23.792;2023-04-21T06:03:31;97288.34;;;8.08;94.57
57086;BME280;42964;42.910;23.792;2023-04-21T06:08:31;97283.19;;;8.15;93.97
57086;BME280;42964;42.910;23.792;2023-04-21T06:13:30;97318.53;;;8.45;94.03
57086;BME280;42964;42.910;23.792;2023-04-21T06:18:29;97267.69;;;8.42;96.33
57086;BME280;42964;42.910;23.792;2023-04-21T06:23:28;97317.56;;;9.18;93.77
57086;BME280;42964;42.910;23.792;2023-04-21T06:28:27;97310.56;;;9.63;91.31
57086;BME280;42964;42.910;23.792;2023-04-21T06:33:27;97313.00;;;9.91;89.21
57086;BME280;42964;42.910;23.792;2023-04-21T06:38:26;97298.25;;;10.04;88.26
57086;BME280;42964;42.910;23.792;2023-04-21T06:43:25;97272.34;;;10.05;85.77
57086;BME280;42964;42.910;23.792;2023-04-21T06:48:24;97276.66;;;10.00;85.55
57086;BME280;42964;42.910;23.792;2023-04-21T06:53:23;97301.66;;;10.13;86.67
57086;BME280;42964;42.910;23.792;2023-04-21T06:58:22;97291.31;;;10.10;84.88
57086;BME280;42964;42.910;23.792;2023-04-21T07:03:21;97289.56;;;10.12;87.05
57086;BME280;42964;42.910;23.792;2023-04-21T07:08:20;97284.25;;;10.31;86.70
57086;BME280;42964;42.910;23.792;2023-04-21T07:13:19;97285.84;;;10.46;87.33
57086;BME280;42964;42.910;23.792;2023-04-21T07:18:18;97290.13;;;10.53;86.89
57086;BME280;42964;42.910;23.792;2023-04-21T07:23:17;97274.50;;;10.56;86.14
57086;BME280;42964;42.910;23.792;2023-04-21T07:28:16;97274.41;;;10.71;86.89
57086;BME280;42964;42.910;23.792;2023-04-21T07:33:15;97280.34;;;10.79;85.26
57086;BME280;42964;42.910;23.792;2023-04-21T07:38:14;97275.28;;;10.69;85.42
57086;BME280;42964;42.910;23.792;2023-04-21T07:43:13;97277.66;;;10.96;86.51
57086;BME280;42964;42.910;23.792;2023-04-21T07:48:12;97216.16;;;11.01;86.14
57086;BME280;42964;42.910;23.792;2023-04-21T07:53:11;97275.44;;;12.05;84.99
57086;BME280;42964;42.910;23.792;2023-04-21T07:58:10;97277.69;;;12.84;84.17
57086;BME280;42964;42.910;23.792;2023-04-21T08:03:09;97264.53;;;13.35;78.40
57086;BME280;42964;42.910;23.792;2023-04-21T08:08:08;97268.53;;;13.95;76.58
57086;BME280;42964;42.910;23.792;2023-04-21T08:13:07;97274.19;;;14.50;71.29
57086;BME280;42964;42.910;23.792;2023-04-21T08:18:06;97270.91;;;15.12;67.39
57086;BME280;42964;42.910;23.792;2023-04-21T08:23:05;97272.34;;;15.86;68.34
57086;BME280;42964;42.910;23.792;2023-04-21T08:28:04;97261.66;;;16.48;59.84
57086;BME280;42964;42.910;23.792;2023-04-21T08:33:03;97259.84;;;17.04;59.01
57086;BME280;42964;42.910;23.792;2023-04-21T08:38:02;97259.91;;;17.51;50.29
57086;BME280;42964;42.910;23.792;2023-04-21T08:43:01;97256.56;;;17.71;50.56
57086;BME280;42964;42.910;23.792;2023-04-21T08:48:01;97259.25;;;18.15;50.43
57086;BME280;42964;42.910;23.792;2023-04-21T08:53:02;97253.81;;;17.97;51.42
57086;BME280;42964;42.910;23.792;2023-04-21T08:58:03;97259.69;;;17.57;50.04
57086;BME280;42964;42.910;23.792;2023-04-21T09:03:02;97239.81;;;17.26;51.12
57086;BME280;42964;42.910;23.792;2023-04-21T09:08:14;97246.31;;;17.40;49.54
57086;BME280;42964;42.910;23.792;2023-04-21T09:13:17;97253.56;;;17.56;50.93
57086;BME280;42964;42.910;23.792;2023-04-21T09:18:18;97087.94;;;16.48;49.49
57086;BME280;42964;42.910;23.792;2023-04-21T09:23:19;97196.88;;;17.05;48.58
57086;BME280;42964;42.910;23.792;2023-04-21T09:28:19;97238.03;;;17.52;50.85
57086;BME280;42964;42.910;23.792;2023-04-21T09:33:17;97220.53;;;17.98;48.59
57086;BME280;42964;42.910;23.792;2023-04-21T09:38:21;97229.94;;;18.26;49.57
57086;BME280;42964;42.910;23.792;2023-04-21T09:43:20;97225.69;;;18.66;46.81
57086;BME280;42964;42.910;23.792;2023-04-21T09:48:20;97204.78;;;18.20;45.71
57086;BME280;42964;42.910;23.792;2023-04-21T09:53:23;97217.78;;;17.79;46.79
57086;BME280;42964;42.910;23.792;2023-04-21T09:58:27;97215.75;;;17.62;48.10
57086;BME280;42964;42.910;23.792;2023-04-21T10:03:29;97212.50;;;17.32;47.94
57086;BME280;42964;42.910;23.792;2023-04-21T10:08:29;97212.31;;;17.13;48.65
57086;BME280;42964;42.910;23.792;2023-04-21T10:13:29;97204.03;;;17.00;48.45
57086;BME280;42964;42.910;23.792;2023-04-21T10:18:29;97153.19;;;16.79;48.24
57086;BME280;42964;42.910;23.792;2023-04-21T10:23:30;97157.81;;;16.98;48.93
57086;BME280;42964;42.910;23.792;2023-04-21T10:28:44;97185.91;;;16.94;48.01
57086;BME280;42964;42.910;23.792;2023-04-21T10:39:08;97155.78;;;17.53;47.95
57086;BME280;42964;42.910;23.792;2023-04-21T10:44:12;97175.78;;;18.23;45.79
57086;BME280;42964;42.910;23.792;2023-04-21T10:49:20;97124.03;;;18.66;43.88
57086;BME280;42964;42.910;23.792;2023-04-21T10:54:21;97163.50;;;19.45;44.81
57086;BME280;42964;42.910;23.792;2023-04-21T10:59:20;97167.38;;;19.57;40.51
57086;BME280;42964;42.910;23.792;2023-04-21T11:04:21;97200.59;;;17.23;59.57
57086;BME280;42964;42.910;23.792;2023-04-21T11:09:19;97205.50;;;14.83;72.62
57086;BME280;42964;42.910;23.792;2023-04-21T11:14:19;97209.81;;;13.77;78.30
57086;BME280;42964;42.910;23.792;2023-04-21T11:19:18;97199.06;;;13.50;78.89
57086;BME280;42964;42.910;23.792;2023-04-21T11:24:22;97199.34;;;13.78;85.11
57086;BME280;42964;42.910;23.792;2023-04-21T11:29:21;97193.66;;;14.36;88.60
57086;BME280;42964;42.910;23.792;2023-04-21T11:34:21;97192.91;;;14.98;91.36
57086;BME280;42964;42.910;23.792;2023-04-21T11:39:20;97117.69;;;15.09;90.54
57086;BME280;42964;42.910;23.792;2023-04-21T11:44:40;97176.66;;;16.05;92.23
57086;BME280;42964;42.910;23.792;2023-04-21T11:49:59;97163.09;;;16.46;91.25
57086;BME280;42964;42.910;23.792;2023-04-21T11:55:00;97230.47;;;15.86;65.86
57086;BME280;42964;42.910;23.792;2023-04-21T12:00:01;97251.28;;;14.27;63.87
57086;BME280;42964;42.910;23.792;2023-04-21T12:10:32;97263.47;;;11.92;77.90
57086;BME280;42964;42.910;23.792;2023-04-21T12:15:31;97247.69;;;11.40;82.46
57086;BME280;42964;42.910;23.792;2023-04-21T12:20:30;97247.81;;;11.31;82.08
57086;BME280;42964;42.910;23.792;2023-04-21T12:25:29;97243.22;;;11.53;85.33
57086;BME280;42964;42.910;23.792;2023-04-21T12:30:28;97247.09;;;11.85;89.09
57086;BME280;42964;42.910;23.792;2023-04-21T12:35:27;97244.38;;;12.51;93.01
57086;BME280;42964;42.910;23.792;2023-04-21T12:40:26;97247.31;;;13.28;95.58
57086;BME280;42964;42.910;23.792;2023-04-21T12:45:25;97242.03;;;14.12;96.51
57086;BME280;42964;42.910;23.792;2023-04-21T12:50:24;97234.94;;;14.90;92.04
57086;BME280;42964;42.910;23.792;2023-04-21T12:55:23;97226.16;;;15.55;88.79
57086;BME280;42964;42.910;23.792;2023-04-21T13:00:22;97221.00;;;16.10;84.51
57086;BME280;42964;42.910;23.792;2023-04-21T13:05:20;97214.59;;;16.72;83.52
57086;BME280;42964;42.910;23.792;2023-04-21T13:10:19;97197.16;;;17.21;80.11
57086;BME280;42964;42.910;23.792;2023-04-21T13:15:19;97189.41;;;17.65;75.21
57086;BME280;42964;42.910;23.792;2023-04-21T13:20:18;97193.13;;;17.83;71.32
57086;BME280;42964;42.910;23.792;2023-04-21T13:25:18;97194.19;;;18.01;69.42
57086;BME280;42964;42.910;23.792;2023-04-21T13:30:17;97187.19;;;18.22;65.85
57086;BME280;42964;42.910;23.792;2023-04-21T13:35:16;97190.22;;;18.13;60.53
57086;BME280;42964;42.910;23.792;2023-04-21T13:40:15;97148.16;;;17.69;59.99
57086;BME280;42964;42.910;23.792;2023-04-21T13:45:14;97186.41;;;17.74;58.99
57086;BME280;42964;42.910;23.792;2023-04-21T13:50:13;97179.53;;;17.72;63.09
57086;BME280;42964;42.910;23.792;2023-04-21T13:55:12;97180.06;;;17.82;64.06
57086;BME280;42964;42.910;23.792;2023-04-21T14:00:12;97189.09;;;17.96;59.95
57086;BME280;42964;42.910;23.792;2023-04-21T14:05:11;97188.59;;;18.31;60.02
57086;BME280;42964;42.910;23.792;2023-04-21T14:10:10;97181.09;;;18.85;60.97
57086;BME280;42964;42.910;23.792;2023-04-21T14:15:10;97156.59;;;19.23;57.33
57086;BME280;42964;42.910;23.792;2023-04-21T14:20:10;97160.72;;;19.48;54.37
57086;BME280;42964;42.910;23.792;2023-04-21T14:25:09;97158.59;;;19.75;51.51
57086;BME280;42964;42.910;23.792;2023-04-21T14:30:08;97145.50;;;19.74;48.83
57086;BME280;42964;42.910;23.792;2023-04-21T14:35:08;97158.25;;;19.64;50.15
57086;BME280;42964;42.910;23.792;2023-04-21T14:40:07;97149.41;;;19.46;46.53
57086;BME280;42964;42.910;23.792;2023-04-21T14:45:07;97138.47;;;18.97;46.38
57086;BME280;42964;42.910;23.792;2023-04-21T14:50:06;97139.69;;;18.90;49.49
57086;BME280;42964;42.910;23.792;2023-04-21T14:55:06;97145.94;;;18.87;50.74
57086;BME280;42964;42.910;23.792;2023-04-21T15:00:05;97158.47;;;18.80;51.26
57086;BME280;42964;42.910;23.792;2023-04-21T15:05:06;97157.72;;;18.78;49.12
57086;BME280;42964;42.910;23.792;2023-04-21T15:10:07;97158.41;;;18.41;47.27
57086;BME280;42964;42.910;23.792;2023-04-21T15:15:08;97161.38;;;18.11;47.76
57086;BME280;42964;42.910;23.792;2023-04-21T15:20:10;97162.03;;;17.49;50.68
57086;BME280;42964;42.910;23.792;2023-04-21T15:25:10;97159.38;;;17.27;53.98
57086;BME280;42964;42.910;23.792;2023-04-21T15:30:10;97145.34;;;17.04;54.53
57086;BME280;42964;42.910;23.792;2023-04-21T15:35:11;97159.13;;;16.61;54.20
57086;BME280;42964;42.910;23.792;2023-04-21T15:40:12;97150.13;;;16.43;56.08
57086;BME280;42964;42.910;23.792;2023-04-21T15:45:11;97144.59;;;16.50;58.56
57086;BME280;42964;42.910;23.792;2023-04-21T15:50:10;97110.19;;;16.36;58.98
57086;BME280;42964;42.910;23.792;2023-04-21T15:55:10;97156.50;;;16.61;59.77
57086;BME280;42964;42.910;23.792;2023-04-21T16:00:10;97150.75;;;16.49;60.37
57086;BME280;42964;42.910;23.792;2023-04-21T16:05:10;97156.50;;;16.34;59.17
57086;BME280;42964;42.910;23.792;2023-04-21T16:10:09;97175.56;;;15.84;61.70
57086;BME280;42964;42.910;23.792;2023-04-21T16:15:09;97209.44;;;14.98;60.01
57086;BME280;42964;42.910;23.792;2023-04-21T16:20:09;97228.63;;;13.91;69.60
57086;BME280;42964;42.910;23.792;2023-04-21T16:25:09;97246.84;;;13.07;77.65
57086;BME280;42964;42.910;23.792;2023-04-21T16:30:11;97259.56;;;12.23;80.75
57086;BME280;42964;42.910;23.792;2023-04-21T16:35:10;97265.41;;;11.77;83.43
57086;BME280;42964;42.910;23.792;2023-04-21T16:40:09;97264.63;;;11.71;85.94
57086;BME280;42964;42.910;23.792;2023-04-21T16:45:08;97267.22;;;11.72;87.87
57086;BME280;42964;42.910;23.792;2023-04-21T16:50:08;97270.63;;;11.77;89.81
57086;BME280;42964;42.910;23.792;2023-04-21T16:55:07;97287.94;;;11.78;91.51
57086;BME280;42964;42.910;23.792;2023-04-21T17:00:07;97298.31;;;11.80;91.60
57086;BME280;42964;42.910;23.792;2023-04-21T17:05:06;97288.06;;;11.69;93.25
57086;BME280;42964;42.910;23.792;2023-04-21T17:10:06;97218.19;;;10.66;96.21
57086;BME280;42964;42.910;23.792;2023-04-21T17:15:05;97309.47;;;11.14;96.62
57086;BME280;42964;42.910;23.792;2023-04-21T17:20:05;97309.72;;;10.89;96.75
57086;BME280;42964;42.910;23.792;2023-04-21T17:25:05;97324.34;;;10.99;96.52
57086;BME280;42964;42.910;23.792;2023-04-21T17:30:04;97271.72;;;10.79;96.11
57086;BME280;42964;42.910;23.792;2023-04-21T17:35:04;97344.94;;;11.18;96.38
57086;BME280;42964;42.910;23.792;2023-04-21T17:40:04;97342.34;;;11.15;97.04
57086;BME280;42964;42.910;23.792;2023-04-21T17:45:04;97340.56;;;11.24;96.83
57086;BME280;42964;42.910;23.792;2023-04-21T17:50:05;97349.97;;;11.33;97.43
57086;BME280;42964;42.910;23.792;2023-04-21T17:55:06;97361.25;;;11.32;97.16
57086;BME280;42964;42.910;23.792;2023-04-21T18:00:06;97363.31;;;10.96;97.78
57086;BME280;42964;42.910;23.792;2023-04-21T18:05:09;97358.25;;;10.78;97.82
57086;BME280;42964;42.910;23.792;2023-04-21T18:10:11;97317.59;;;10.77;98.53
57086;BME280;42964;42.910;23.792;2023-04-21T18:15:10;97308.19;;;10.64;98.51
57086;BME280;42964;42.910;23.792;2023-04-21T18:20:10;97336.59;;;10.77;98.87
57086;BME280;42964;42.910;23.792;2023-04-21T18:25:10;97327.06;;;10.81;98.01
57086;BME280;42964;42.910;23.792;2023-04-21T18:30:10;97322.00;;;10.69;98.14
57086;BME280;42964;42.910;23.792;2023-04-21T18:35:09;97351.47;;;10.61;98.33
57086;BME280;42964;42.910;23.792;2023-04-21T18:40:08;97347.28;;;10.39;98.91
57086;BME280;42964;42.910;23.792;2023-04-21T18:45:07;97311.81;;;10.39;99.66
57086;BME280;42964;42.910;23.792;2023-04-21T18:50:07;97270.28;;;10.44;99.36
57086;BME280;42964;42.910;23.792;2023-04-21T18:55:06;97284.94;;;10.51;99.94
57086;BME280;42964;42.910;23.792;2023-04-21T19:00:06;97296.13;;;10.56;99.61
57086;BME280;42964;42.910;23.792;2023-04-21T19:05:08;97317.13;;;10.23;98.73
57086;BME280;42964;42.910;23.792;2023-04-21T19:10:07;97314.81;;;9.80;100.00
57086;BME280;42964;42.910;23.792;2023-04-21T19:15:07;97267.44;;;9.48;100.00
57086;BME280;42964;42.910;23.792;2023-04-21T19:20:06;97305.38;;;9.60;100.00
57086;BME280;42964;42.910;23.792;2023-04-21T19:25:06;97307.13;;;9.58;100.00
57086;BME280;42964;42.910;23.792;2023-04-21T19:30:06;97282.13;;;9.49;100.00
57086;BME280;42964;42.910;23.792;2023-04-21T19:35:06;97317.38;;;9.83;100.00
57086;BME280;42964;42.910;23.792;2023-04-21T19:40:06;97325.09;;;9.95;99.33
57086;BME280;42964;42.910;23.792;2023-04-21T19:45:06;97320.69;;;10.05;98.70
57086;BME280;42964;42.910;23.792;2023-04-21T19:50:07;97261.31;;;9.72;99.38
57086;BME280;42964;42.910;23.792;2023-04-21T19:55:06;97330.28;;;9.93;98.72
57086;BME280;42964;42.910;23.792;2023-04-21T20:00:06;97339.72;;;10.05;98.31
57086;BME280;42964;42.910;23.792;2023-04-21T20:05:09;97322.50;;;9.95;98.36
57086;BME280;42964;42.910;23.792;2023-04-21T20:10:08;97360.44;;;10.07;97.35
57086;BME280;42964;42.910;23.792;2023-04-21T20:15:07;97371.78;;;9.87;96.82
57086;BME280;42964;42.910;23.792;2023-04-21T20:20:07;97312.31;;;9.61;98.46
57086;BME280;42964;42.910;23.792;2023-04-21T20:25:07;97283.88;;;9.44;97.61
57086;BME280;42964;42.910;23.792;2023-04-21T20:30:06;97390.69;;;10.05;98.58
57086;BME280;42964;42.910;23.792;2023-04-21T20:35:05;97382.03;;;10.07;98.24
57086;BME280;42964;42.910;23.792;2023-04-21T20:40:06;97384.66;;;10.04;98.26
57086;BME280;42964;42.910;23.792;2023-04-21T20:45:06;97388.13;;;10.02;98.14
57086;BME280;42964;42.910;23.792;2023-04-21T20:50:06;97368.38;;;9.76;97.66
57086;BME280;42964;42.910;23.792;2023-04-21T20:55:06;97382.97;;;9.95;98.22
57086;BME280;42964;42.910;23.792;2023-04-21T21:00:05;97383.88;;;9.87;98.20
57086;BME280;42964;42.910;23.792;2023-04-21T21:05:04;97395.94;;;9.94;98.31
57086;BME280;42964;42.910;23.792;2023-04-21T21:10:04;97383.16;;;9.25;98.60
57086;BME280;42964;42.910;23.792;2023-04-21T21:15:03;97449.63;;;9.43;100.00
57086;BME280;42964;42.910;23.792;2023-04-21T21:20:03;97446.16;;;9.13;100.00
57086;BME280;42964;42.910;23.792;2023-04-21T21:25:02;97442.72;;;9.29;100.00
57086;BME280;42964;42.910;23.792;2023-04-21T21:30:01;97448.75;;;9.44;100.00
57086;BME280;42964;42.910;23.792;2023-04-21T21:35:01;97453.06;;;9.59;100.00
57086;BME280;42964;42.910;23.792;2023-04-21T21:40:00;97456.47;;;9.70;100.00
57086;BME280;42964;42.910;23.792;2023-04-21T21:44:59;97440.88;;;9.88;100.00
57086;BME280;42964;42.910;23.792;2023-04-21T21:49:58;97443.47;;;9.90;100.00
57086;BME280;42964;42.910;23.792;2023-04-21T21:54:57;97438.28;;;9.93;100.00
57086;BME280;42964;42.910;23.792;2023-04-21T21:59:56;97450.34;;;9.97;100.00
57086;BME280;42964;42.910;23.792;2023-04-21T22:04:57;97454.63;;;10.10;99.36
57086;BME280;42964;42.910;23.792;2023-04-21T22:09:57;97440.75;;;10.20;99.12
57086;BME280;42964;42.910;23.792;2023-04-21T22:14:58;97451.97;;;10.23;98.03
57086;BME280;42964;42.910;23.792;2023-04-21T22:19:57;97443.28;;;10.33;97.94
57086;BME280;42964;42.910;23.792;2023-04-21T22:24:56;97417.38;;;10.30;98.06
57086;BME280;42964;42.910;23.792;2023-04-21T22:29:55;97375.16;;;10.03;97.27
57086;BME280;42964;42.910;23.792;2023-04-21T22:34:54;97431.22;;;10.29;97.41
57086;BME280;42964;42.910;23.792;2023-04-21T22:39:53;97424.34;;;10.20;97.54
57086;BME280;42964;42.910;23.792;2023-04-21T22:44:54;97415.72;;;10.19;96.96
57086;BME280;42964;42.910;23.792;2023-04-21T22:49:54;97408.88;;;10.03;97.23
57086;BME280;42964;42.910;23.792;2023-04-21T22:54:53;97405.41;;;10.01;96.97
57086;BME280;42964;42.910;23.792;2023-04-21T22:59:52;97401.97;;;9.99;96.89
57086;BME280;42964;42.910;23.792;2023-04-21T23:04:51;97390.75;;;9.98;96.87
57086;BME280;42964;42.910;23.792;2023-04-21T23:09:50;97385.56;;;9.95;96.68
57086;BME280;42964;42.910;23.792;2023-04-21T23:14:49;97391.63;;;9.93;97.10
57086;BME280;42964;42.910;23.792;2023-04-21T23:19:48;97372.69;;;9.82;96.79
57086;BME280;42964;42.910;23.792;2023-04-21T23:24:47;97358.88;;;9.67;97.67
57086;BME280;42964;42.910;23.792;2023-04-21T23:29:46;97363.25;;;9.61;98.12
57086;BME280;42964;42.910;23.792;2023-04-21T23:34:45;97343.47;;;9.38;97.82
57086;BME280;42964;42.910;23.792;2023-04-21T23:39:44;97370.19;;;9.46;97.28
57086;BME280;42964;42.910;23.792;2023-04-21T23:44:43;97373.66;;;9.42;97.26
57086;BME280;42964;42.910;23.792;2023-04-21T23:49:42;97378.00;;;9.23;97.70
57086;BME280;42964;42.910;23.792;2023-04-21T23:54:41;97377.13;;;9.17;97.61
57086;BME280;42964;42.910;23.792;2023-04-21T23:59:39;97359.91;;;8.94;97.87
